Time;durP1;ratioP1;P1;durP2;ratioP2;P2;SDS_P1;SDS_P2;PMS_P1;PMS_P2;Temp;Humidity;BMP_temperature;BMP_pressure;BME280_temperature;BME280_humidity;BME280_pressure;Samples;Min_cycle;Max_cycle;Signal;HPM_P1;HPM_P2
2023/07/28 00:00:00;;;;;;;5.20;4.70;;;;;;;20.43;74.05;98655.78;4972022;28;20061;-77
2023/07/28 00:02:26;;;;;;;5.30;4.63;;;;;;;20.43;74.10;98661.13;5002533;28;20077;-76
2023/07/28 00:04:53;;;;;;;7.00;5.10;;;;;;;20.44;73.90;98649.44;5009723;28;20402;-77
2023/07/28 00:07:19;;;;;;;5.40;4.47;;;;;;;20.43;73.95;98639.75;5010924;28;20061;-76
2023/07/28 00:09:46;;;;;;;5.28;4.75;;;;;;;20.43;74.02;98639.75;5011035;28;20137;-77
2023/07/28 00:12:13;;;;;;;6.10;4.60;;;;;;;20.42;73.65;98632.72;4999877;28;20050;-76
2023/07/28 00:14:40;;;;;;;5.32;4.57;;;;;;;20.41;73.72;98631.06;4991006;28;20042;-76
2023/07/28 00:17:06;;;;;;;7.22;4.78;;;;;;;20.43;74.02;98623.72;4990917;28;20054;-78
2023/07/28 00:19:33;;;;;;;5.13;4.55;;;;;;;20.41;73.84;98620.38;4991398;28;20149;-77
2023/07/28 00:21:59;;;;;;;5.40;4.90;;;;;;;20.41;73.99;98617.72;4980059;28;20054;-76
2023/07/28 00:24:26;;;;;;;7.53;4.90;;;;;;;20.42;73.61;98623.91;4993400;28;20572;-77
2023/07/28 00:26:53;;;;;;;6.18;4.60;;;;;;;20.41;73.86;98628.41;5010508;28;20052;-77
2023/07/28 00:29:19;;;;;;;6.30;5.22;;;;;;;20.41;73.83;98628.41;5010822;28;20057;-76
2023/07/28 00:31:46;;;;;;;5.13;4.63;;;;;;;20.42;73.54;98630.06;5007919;28;20081;-75
2023/07/28 00:34:12;;;;;;;6.57;5.00;;;;;;;20.41;73.47;98639.09;4991381;28;20051;-76
2023/07/28 00:36:40;;;;;;;6.00;4.57;;;;;;;20.41;73.91;98633.75;4990947;28;20042;-76
2023/07/28 00:39:07;;;;;;;5.35;4.82;;;;;;;20.40;73.74;98636.59;4991258;28;20054;-75
2023/07/28 00:41:34;;;;;;;5.65;4.85;;;;;;;20.38;73.71;98639.47;4990999;28;20081;-77
2023/07/28 00:44:00;;;;;;;7.18;5.68;;;;;;;20.37;73.76;98619.06;5007767;28;20068;-76
2023/07/28 00:46:27;;;;;;;6.75;6.05;;;;;;;20.37;73.76;98634.31;5009417;28;20185;-76
2023/07/28 00:48:54;;;;;;;7.75;6.05;;;;;;;20.36;73.78;98637.97;5010320;28;20411;-78
2023/07/28 00:51:21;;;;;;;6.45;5.35;;;;;;;20.34;73.87;98634.66;4993145;28;20053;-76
2023/07/28 00:53:48;;;;;;;6.22;5.32;;;;;;;20.31;73.83;98647.34;4997761;28;20062;-77
2023/07/28 00:56:15;;;;;;;6.68;5.32;;;;;;;20.31;73.97;98654.53;5006539;28;20050;-77
2023/07/28 00:58:42;;;;;;;6.07;5.47;;;;;;;20.30;73.89;98658.22;4973558;28;20453;-76
2023/07/28 01:01:08;;;;;;;5.88;5.25;;;;;;;20.30;73.92;98648.34;4990844;28;20061;-78
2023/07/28 01:03:35;;;;;;;7.13;5.63;;;;;;;20.30;74.32;98660.91;4993566;28;20046;-76
2023/07/28 01:06:37;;;;;;;6.10;5.07;;;;;;;20.25;75.03;98657.91;4976915;28;20047;-75
2023/07/28 01:09:10;;;;;;;6.32;5.32;;;;;;;20.29;74.46;98662.75;4977064;28;20062;-76
2023/07/28 01:11:36;;;;;;;6.22;5.60;;;;;;;20.31;74.17;98646.53;4994720;28;20062;-77
2023/07/28 01:14:03;;;;;;;6.00;5.40;;;;;;;20.31;74.24;98649.19;4995289;28;20129;-76
2023/07/28 01:16:30;;;;;;;6.20;5.30;;;;;;;20.30;74.15;98651.03;4994353;28;20062;-77
2023/07/28 01:18:56;;;;;;;8.75;5.75;;;;;;;20.31;74.23;98647.34;4994124;28;20050;-76
2023/07/28 01:21:28;;;;;;;7.75;5.43;;;;;;;20.29;74.31;98636.00;4993990;28;20054;-76
2023/07/28 01:24:12;;;;;;;6.55;5.60;;;;;;;20.28;74.58;98638.84;5008686;28;20045;-77
2023/07/28 01:26:40;;;;;;;9.15;5.57;;;;;;;20.31;74.01;98643.84;5013370;28;20136;-76
2023/07/28 01:29:07;;;;;;;6.43;5.80;;;;;;;20.33;74.12;98649.03;5013868;28;20050;-77
2023/07/28 01:31:34;;;;;;;6.50;5.75;;;;;;;20.31;74.06;98652.69;5012371;28;20050;-76
2023/07/28 01:34:00;;;;;;;7.40;6.15;;;;;;;20.31;73.98;98642.00;5000839;28;20134;-77
2023/07/28 01:36:27;;;;;;;7.50;6.45;;;;;;;20.33;74.05;98649.84;4993967;28;20054;-76
2023/07/28 01:38:54;;;;;;;9.30;6.38;;;;;;;20.33;74.59;98657.84;4993987;28;20054;-76
2023/07/28 01:41:20;;;;;;;6.35;5.75;;;;;;;20.33;74.41;98654.38;4993637;28;20046;-75
2023/07/28 01:43:47;;;;;;;6.93;6.22;;;;;;;20.34;74.36;98653.34;4994713;28;20553;-77
2023/07/28 01:46:14;;;;;;;6.68;5.50;;;;;;;20.34;74.19;98651.53;4993525;28;20061;-76
2023/07/28 01:48:40;;;;;;;6.85;6.15;;;;;;;20.35;74.30;98655.00;4993478;28;20061;-75
2023/07/28 01:51:07;;;;;;;7.40;5.57;;;;;;;20.34;74.27;98648.00;4993873;28;20418;-77
2023/07/28 01:53:34;;;;;;;6.47;5.88;;;;;;;20.35;74.20;98653.19;4996877;28;20041;-78
2023/07/28 01:56:00;;;;;;;7.15;6.03;;;;;;;20.34;74.21;98646.19;5013051;28;20054;-75
2023/07/28 01:58:27;;;;;;;6.53;5.55;;;;;;;20.35;74.25;98653.19;5012927;28;20749;-76
2023/07/28 02:03:24;;;;;;;6.32;5.68;;;;;;;20.36;74.14;98654.84;5059259;23;20063;-82
2023/07/28 02:05:52;;;;;;;7.95;6.05;;;;;;;20.36;74.27;98656.66;4974543;28;20053;-83
2023/07/28 02:08:19;;;;;;;6.75;6.05;;;;;;;20.35;74.16;98658.53;4974393;28;20125;-83
2023/07/28 02:10:45;;;;;;;7.97;6.32;;;;;;;20.35;74.14;98647.84;4974508;28;20069;-84
2023/07/28 02:13:12;;;;;;;7.85;6.35;;;;;;;20.34;74.21;98651.53;4957446;28;20142;-83
2023/07/28 02:15:38;;;;;;;7.15;6.15;;;;;;;20.34;74.32;98650.69;4973755;28;20050;-82
2023/07/28 02:18:06;;;;;;;7.97;6.57;;;;;;;20.34;74.23;98648.84;4974231;28;20133;-83
2023/07/28 02:20:35;;;;;;;7.43;6.72;;;;;;;20.35;74.31;98650.50;4974285;28;20081;-82
2023/07/28 02:23:02;;;;;;;8.65;6.45;;;;;;;20.35;74.16;98639.81;4974399;28;20109;-83
2023/07/28 02:25:29;;;;;;;7.10;6.40;;;;;;;20.35;73.99;98641.66;4956782;28;20146;-82
2023/07/28 02:27:56;;;;;;;6.90;6.03;;;;;;;20.36;74.33;98654.00;4973954;28;20418;-82
2023/07/28 02:30:22;;;;;;;12.23;7.30;;;;;;;20.37;74.27;98653.81;4956238;28;20042;-83
2023/07/28 02:32:49;;;;;;;14.00;6.93;;;;;;;20.37;74.09;98651.16;4973377;28;20082;-82
2023/07/28 02:35:16;;;;;;;7.38;6.43;;;;;;;20.38;74.01;98652.84;4973243;28;20043;-83
2023/07/28 02:37:46;;;;;;;8.38;6.30;;;;;;;20.39;74.39;98662.50;4973121;28;20050;-83
2023/07/28 02:40:13;;;;;;;8.85;6.65;;;;;;;20.42;74.14;98659.44;4973514;28;20047;-83
2023/07/28 02:42:39;;;;;;;9.82;7.05;;;;;;;20.41;74.15;98663.16;4973360;28;20058;-82
2023/07/28 02:45:07;;;;;;;7.15;6.38;;;;;;;20.41;74.14;98659.66;4973185;28;20065;-82
2023/07/28 02:47:33;;;;;;;7.75;6.25;;;;;;;20.41;74.14;98663.16;4972951;28;20086;-82
2023/07/28 02:50:00;;;;;;;7.45;6.72;;;;;;;20.39;74.07;98665.19;4973063;28;20082;-82
2023/07/28 02:52:26;;;;;;;7.88;6.88;;;;;;;20.40;74.18;98666.84;4972769;28;20145;-82
2023/07/28 02:54:53;;;;;;;8.05;6.53;;;;;;;20.41;74.08;98665.00;4972966;28;20050;-83
2023/07/28 02:57:19;;;;;;;7.60;6.57;;;;;;;20.41;73.94;98667.69;4972841;28;20110;-82
2023/07/28 02:59:46;;;;;;;7.22;6.53;;;;;;;20.40;74.29;98668.66;4973026;28;20047;-82
2023/07/28 03:02:12;;;;;;;7.78;6.47;;;;;;;20.39;74.09;98667.84;4973022;28;20050;-82
2023/07/28 03:04:39;;;;;;;8.93;6.78;;;;;;;20.40;74.26;98674.00;4955474;28;20116;-82
2023/07/28 03:07:05;;;;;;;7.22;6.50;;;;;;;20.37;74.44;98677.88;4973040;28;20086;-83
2023/07/28 03:09:33;;;;;;;6.43;5.80;;;;;;;20.39;74.26;98677.69;4972798;28;20050;-83
2023/07/28 03:11:59;;;;;;;6.10;5.50;;;;;;;20.38;74.30;98687.56;4972881;28;20495;-83
2023/07/28 03:14:26;;;;;;;7.03;6.00;;;;;;;20.38;74.28;98682.22;4972482;28;20058;-82
2023/07/28 03:16:52;;;;;;;6.07;5.43;;;;;;;20.37;74.43;98682.41;4955238;28;20460;-83
2023/07/28 03:19:19;;;;;;;6.97;5.60;;;;;;;20.35;74.17;98677.22;4972508;28;20105;-84
2023/07/28 03:21:45;;;;;;;7.38;6.45;;;;;;;20.36;74.15;98686.06;4972765;28;20113;-82
2023/07/28 03:24:12;;;;;;;6.78;5.85;;;;;;;20.35;74.48;98689.75;4972498;28;20141;-82
2023/07/28 03:26:39;;;;;;;8.65;6.30;;;;;;;20.34;74.39;98688.94;4971654;28;20082;-82
2023/07/28 03:29:05;;;;;;;7.57;6.13;;;;;;;20.33;74.24;98689.94;4972381;28;20085;-84
2023/07/28 03:31:35;;;;;;;7.60;6.35;;;;;;;20.32;74.45;98696.28;4955342;28;20046;-83
2023/07/28 03:34:03;;;;;;;9.45;6.40;;;;;;;20.31;74.51;98691.97;4972208;28;20050;-83
2023/07/28 03:36:30;;;;;;;6.22;5.63;;;;;;;20.30;74.65;98687.63;4955116;28;20050;-83
2023/07/28 03:38:56;;;;;;;6.43;5.68;;;;;;;20.28;74.86;98698.50;4954807;28;20102;-83
2023/07/28 03:41:23;;;;;;;8.38;5.88;;;;;;;20.28;74.80;98695.81;4972240;28;20065;-83
2023/07/28 03:43:49;;;;;;;6.43;5.82;;;;;;;20.28;74.79;98700.31;4971973;28;20068;-82
2023/07/28 03:46:16;;;;;;;6.72;6.10;;;;;;;20.27;75.00;98698.66;4971980;28;20090;-83
2023/07/28 03:48:42;;;;;;;6.00;5.45;;;;;;;20.28;75.03;98705.66;4971804;28;20094;-83
2023/07/28 03:51:09;;;;;;;8.77;5.65;;;;;;;20.26;74.86;98700.50;4972818;28;20563;-82
2023/07/28 03:53:35;;;;;;;7.95;6.00;;;;;;;20.28;74.98;98703.84;4971825;28;20105;-83
2023/07/28 03:56:02;;;;;;;8.68;6.60;;;;;;;20.27;75.13;98698.66;4971946;28;20054;-82
2023/07/28 03:58:29;;;;;;;6.88;6.18;;;;;;;20.28;75.06;98700.31;4971842;28;20055;-83
2023/07/28 04:00:56;;;;;;;7.95;5.90;;;;;;;20.30;75.39;98698.31;4971932;28;20042;-82
2023/07/28 04:03:23;;;;;;;6.32;5.72;;;;;;;20.31;75.09;98699.97;4972264;28;20063;-82
2023/07/28 04:05:50;;;;;;;6.22;5.55;;;;;;;20.31;75.18;98689.28;4972002;28;20406;-83
2023/07/28 04:08:16;;;;;;;6.47;5.82;;;;;;;20.31;75.02;98684.75;4972037;28;20416;-83
2023/07/28 04:10:43;;;;;;;7.18;6.30;;;;;;;20.31;75.34;98684.75;4972451;28;20098;-83
2023/07/28 04:13:09;;;;;;;6.85;5.43;;;;;;;20.33;75.28;98697.13;4971944;28;20050;-82
2023/07/28 04:15:36;;;;;;;7.15;6.45;;;;;;;20.32;75.43;98690.94;4971607;28;20058;-82
2023/07/28 04:18:03;;;;;;;8.32;6.32;;;;;;;20.32;75.32;98696.28;4971875;28;20047;-83
2023/07/28 04:20:29;;;;;;;8.52;6.72;;;;;;;20.34;75.31;98696.13;4972105;28;20051;-82
2023/07/28 04:22:56;;;;;;;6.85;6.25;;;;;;;20.34;75.46;98704.13;4971813;28;20055;-82
2023/07/28 04:25:23;;;;;;;9.98;5.50;;;;;;;20.34;75.41;98701.47;4971602;28;20576;-82
2023/07/28 04:27:49;;;;;;;8.23;5.78;;;;;;;20.35;75.38;98705.78;4971867;28;20051;-82
2023/07/28 04:30:16;;;;;;;6.78;6.07;;;;;;;20.35;75.52;98700.44;4971565;28;20053;-82
2023/07/28 04:32:43;;;;;;;6.90;6.30;;;;;;;20.37;75.15;98703.78;4971902;28;20562;-83
2023/07/28 04:35:09;;;;;;;7.68;6.50;;;;;;;20.37;75.35;98709.94;4971628;28;20402;-82
2023/07/28 04:37:36;;;;;;;7.25;6.55;;;;;;;20.38;75.33;98708.97;4973251;28;20129;-83
2023/07/28 04:40:03;;;;;;;8.15;6.40;;;;;;;20.39;75.31;98717.78;4975495;28;20065;-83
2023/07/28 04:42:30;;;;;;;7.07;6.43;;;;;;;20.40;75.49;98714.94;4975530;28;20058;-83
2023/07/28 04:44:56;;;;;;;9.45;6.68;;;;;;;20.43;75.51;98729.78;4975134;28;20051;-83
2023/07/28 04:47:23;;;;;;;10.00;6.93;;;;;;;20.42;75.28;98728.94;4975183;28;20146;-82
2023/07/28 04:49:49;;;;;;;8.82;6.78;;;;;;;20.44;75.58;98729.63;4975447;28;20047;-83
2023/07/28 04:52:16;;;;;;;7.93;7.05;;;;;;;20.44;75.30;98724.28;4975387;28;20042;-82
2023/07/28 04:54:42;;;;;;;8.15;6.78;;;;;;;20.46;75.42;98725.94;4957877;28;20523;-83
2023/07/28 04:57:09;;;;;;;8.30;6.45;;;;;;;20.48;75.66;98735.44;4975140;28;20412;-83
2023/07/28 04:59:38;;;;;;;8.00;7.00;;;;;;;20.51;75.65;98726.22;4974949;28;20102;-83
2023/07/28 05:02:04;;;;;;;8.77;7.88;;;;;;;20.52;75.56;98722.56;4974811;28;20606;-83
2023/07/28 05:04:31;;;;;;;8.20;7.40;;;;;;;20.54;75.42;98726.72;4975296;28;20070;-83
2023/07/28 05:06:58;;;;;;;8.63;7.40;;;;;;;20.56;75.58;98730.03;4974780;28;20134;-83
2023/07/28 05:09:24;;;;;;;8.70;7.40;;;;;;;20.58;75.37;98735.19;4974924;28;20141;-82
2023/07/28 05:11:51;;;;;;;8.55;7.30;;;;;;;20.60;75.49;98737.69;4957641;28;20142;-83
2023/07/28 05:14:17;;;;;;;7.68;6.88;;;;;;;20.62;75.60;98733.84;4974833;28;20487;-81
2023/07/28 05:16:44;;;;;;;7.97;6.57;;;;;;;20.64;75.33;98731.81;4974433;28;20047;-80
2023/07/28 05:19:11;;;;;;;8.68;7.55;;;;;;;20.67;75.46;98749.34;4974768;28;20059;-79
2023/07/28 05:21:38;;;;;;;8.10;6.45;;;;;;;20.68;75.25;98748.34;4974704;28;20137;-80
2023/07/28 05:24:05;;;;;;;7.35;6.63;;;;;;;20.69;75.32;98750.00;4974718;28;20063;-79
2023/07/28 05:26:31;;;;;;;7.25;6.55;;;;;;;20.71;75.42;98756.00;4974363;28;20058;-81
2023/07/28 05:28:58;;;;;;;7.63;6.65;;;;;;;20.73;75.38;98751.31;4957545;28;20491;-79
2023/07/28 05:31:24;;;;;;;7.55;6.80;;;;;;;;;;4974635;28;20078;-80
2023/07/28 05:33:53;;;;;;;8.25;6.65;;;;;;;20.77;75.32;98752.63;4974509;28;20137;-81
2023/07/28 05:36:20;;;;;;;10.25;6.88;;;;;;;20.80;75.19;98754.09;4974057;28;20570;-79
2023/07/28 05:38:46;;;;;;;9.43;6.82;;;;;;;20.81;75.19;98747.72;4974332;28;20107;-80
2023/07/28 05:41:13;;;;;;;7.63;6.82;;;;;;;20.82;75.25;98760.13;4974113;28;20137;-80
2023/07/28 05:43:39;;;;;;;7.93;6.22;;;;;;;20.86;75.21;98747.19;4974471;28;20124;-80
2023/07/28 05:46:06;;;;;;;8.00;6.85;;;;;;;20.88;75.29;98750.53;4973912;28;20050;-79
2023/07/28 05:48:32;;;;;;;7.95;6.78;;;;;;;20.91;75.25;98756.38;4973317;28;20097;-80
2023/07/28 05:50:59;;;;;;;7.93;7.07;;;;;;;20.93;75.20;98749.00;4973681;28;20082;-80
2023/07/28 05:53:26;;;;;;;8.50;6.85;;;;;;;20.95;75.10;98744.31;4973674;28;20054;-79
2023/07/28 05:55:53;;;;;;;7.50;6.80;;;;;;;20.99;74.88;98760.00;4974213;28;20051;-80
2023/07/28 05:58:20;;;;;;;7.00;6.30;;;;;;;20.98;74.76;98758.34;4973878;28;20514;-81
2023/07/28 06:00:47;;;;;;;7.55;6.75;;;;;;;20.99;74.82;98768.00;4974343;28;20082;-79
2023/07/28 06:03:14;;;;;;;6.85;6.15;;;;;;;20.99;74.56;98768.84;4974075;28;20101;-80
2023/07/28 06:05:41;;;;;;;7.72;6.78;;;;;;;20.99;74.65;98770.69;4973818;28;20061;-82
2023/07/28 06:08:09;;;;;;;7.60;6.88;;;;;;;20.99;74.52;98779.56;4971125;28;20047;-80
2023/07/28 06:10:37;;;;;;;7.75;6.70;;;;;;;21.00;74.79;98777.72;4972339;28;20573;-80
2023/07/28 06:13:03;;;;;;;9.95;6.53;;;;;;;21.02;74.85;98767.66;4973717;28;20081;-80
2023/07/28 06:15:29;;;;;;;8.43;6.72;;;;;;;21.04;74.81;98779.84;4973531;28;20113;-80
2023/07/28 06:17:56;;;;;;;8.07;6.05;;;;;;;21.06;74.84;98777.84;4973334;28;20103;-79
2023/07/28 06:20:23;;;;;;;7.43;6.05;;;;;;;21.09;75.12;98780.13;4973337;28;20411;-79
2023/07/28 06:22:50;;;;;;;6.88;6.18;;;;;;;21.13;75.04;98783.31;4956079;28;20059;-80
2023/07/28 06:25:16;;;;;;;10.13;6.45;;;;;;;21.17;74.73;98783.75;4973386;28;20047;-79
2023/07/28 06:27:43;;;;;;;7.50;5.55;;;;;;;21.19;74.71;98785.25;4973309;28;20054;-80
2023/07/28 06:30:10;;;;;;;5.45;4.97;;;;;;;21.22;74.80;98784.88;4973448;28;20162;-80
2023/07/28 06:32:36;;;;;;;6.00;5.40;;;;;;;21.26;74.65;98793.38;4973265;28;20047;-80
2023/07/28 06:35:03;;;;;;;6.90;5.20;;;;;;;21.29;74.52;98800.19;4972970;28;20058;-80
2023/07/28 06:37:30;;;;;;;8.20;5.30;;;;;;;21.32;74.44;98807.88;4972755;28;20051;-79
2023/07/28 06:39:56;;;;;;;6.07;5.22;;;;;;;21.32;74.48;98807.88;4956115;28;20113;-79
2023/07/28 06:42:24;;;;;;;7.85;5.43;;;;;;;21.34;74.30;98813.88;4973183;28;20058;-80
2023/07/28 06:44:51;;;;;;;5.65;4.88;;;;;;;21.35;74.33;98819.03;4972969;28;20113;-79
2023/07/28 06:47:18;;;;;;;9.80;5.47;;;;;;;21.38;74.44;98817.03;4972842;28;20050;-79
2023/07/28 06:49:45;;;;;;;7.10;5.38;;;;;;;21.40;74.56;98810.47;4972611;28;20487;-80
2023/07/28 06:52:11;;;;;;;5.03;4.53;;;;;;;21.44;74.65;98816.28;4955732;28;20050;-80
2023/07/28 06:54:38;;;;;;;6.00;5.40;;;;;;;21.49;74.53;98816.56;4955472;28;20090;-79
2023/07/28 06:57:06;;;;;;;5.82;5.22;;;;;;;21.54;74.55;98816.03;4972449;28;20101;-80
2023/07/28 06:59:33;;;;;;;7.88;5.80;;;;;;;21.59;74.69;98816.31;4972682;28;20599;-80
2023/07/28 07:01:59;;;;;;;6.45;5.47;;;;;;;21.66;74.76;98832.50;4954296;28;20051;-80
2023/07/28 07:04:26;;;;;;;5.68;5.10;;;;;;;21.72;74.85;98827.25;4972383;28;20092;-80
2023/07/28 07:06:53;;;;;;;6.22;5.32;;;;;;;21.80;74.36;98834.41;4972547;28;20065;-80
2023/07/28 07:09:19;;;;;;;7.00;5.30;;;;;;;21.86;74.67;98838.16;4972573;28;20109;-80
2023/07/28 07:11:46;;;;;;;8.00;5.35;;;;;;;21.93;74.73;98835.59;4972576;28;20141;-80
2023/07/28 07:14:14;;;;;;;7.97;5.55;;;;;;;22.00;74.53;98837.38;4972098;28;20051;-80
2023/07/28 07:16:41;;;;;;;8.75;5.60;;;;;;;22.07;74.16;98836.59;4972037;28;20534;-80
2023/07/28 07:19:08;;;;;;;6.97;5.80;;;;;;;22.15;74.00;98844.56;4972770;28;20071;-80
2023/07/28 07:21:35;;;;;;;6.05;5.45;;;;;;;22.22;74.00;98842.81;4972478;28;20483;-79
2023/07/28 07:24:03;;;;;;;5.40;4.90;;;;;;;22.29;73.89;98842.03;4972406;28;20513;-80
2023/07/28 07:26:31;;;;;;;7.63;5.28;;;;;;;22.34;73.93;98848.50;4972522;28;20093;-80
2023/07/28 07:28:58;;;;;;;8.05;5.38;;;;;;;22.43;73.73;98833.13;4972240;28;20142;-79
2023/07/28 07:31:24;;;;;;;6.32;4.97;;;;;;;22.49;73.47;98848.50;4972017;28;20053;-80
2023/07/28 07:33:51;;;;;;;6.30;5.38;;;;;;;22.57;73.04;98849.44;4972164;28;20141;-79
2023/07/28 07:36:19;;;;;;;6.07;5.47;;;;;;;22.62;72.32;98857.75;4972366;28;20474;-79
2023/07/28 07:38:46;;;;;;;6.75;6.05;;;;;;;22.68;72.66;98851.63;4971936;28;20064;-80
2023/07/28 07:41:19;;;;;;;7.22;5.95;;;;;;;22.72;71.87;98854.78;4971964;28;20069;-80
2023/07/28 07:43:47;;;;;;;6.78;5.65;;;;;;;22.77;71.91;98861.22;4954753;28;20485;-80
2023/07/28 07:46:15;;;;;;;6.47;5.43;;;;;;;22.83;71.82;98858.81;4971758;28;20054;-80
2023/07/28 07:48:41;;;;;;;7.72;5.93;;;;;;;22.86;71.89;98858.41;4971778;28;20055;-80
2023/07/28 07:51:08;;;;;;;5.80;5.20;;;;;;;22.90;71.46;98863.22;4971931;28;20086;-80
2023/07/28 07:53:38;;;;;;;7.68;5.65;;;;;;;22.95;71.66;98859.94;4971897;28;20081;-80
2023/07/28 07:56:05;;;;;;;6.72;5.05;;;;;;;23.00;71.94;98865.59;4971485;28;20558;-80
2023/07/28 07:58:32;;;;;;;5.53;5.03;;;;;;;23.08;71.48;98863.78;4971553;28;20047;-79
2023/07/28 08:03:28;;;;;;;5.95;5.35;;;;;;;23.18;71.45;98867.00;5091419;23;20046;-77
2023/07/28 08:05:55;;;;;;;5.82;4.97;;;;;;;23.24;70.68;98878.81;4991630;28;20046;-78
2023/07/28 08:08:21;;;;;;;6.82;5.45;;;;;;;23.28;70.51;98880.94;4991195;28;20042;-78
2023/07/28 08:10:49;;;;;;;8.07;4.93;;;;;;;23.31;69.45;98885.06;4991014;28;20043;-78
2023/07/28 08:13:16;;;;;;;7.45;5.80;;;;;;;23.30;68.97;98889.59;4991011;28;20066;-77
2023/07/28 08:15:43;;;;;;;6.55;5.13;;;;;;;23.29;69.02;98885.25;4990402;28;20125;-77
2023/07/28 08:18:11;;;;;;;8.18;5.28;;;;;;;23.25;69.09;98886.66;4990976;28;20489;-78
2023/07/28 08:20:38;;;;;;;6.22;5.05;;;;;;;23.23;69.26;98887.88;4991368;28;20434;-78
2023/07/28 08:23:04;;;;;;;8.77;4.80;;;;;;;23.21;69.78;98889.94;4991116;28;20649;-78
2023/07/28 08:25:31;;;;;;;5.63;5.07;;;;;;;23.21;70.02;98898.00;4991022;28;20050;-78
2023/07/28 08:27:57;;;;;;;7.70;5.38;;;;;;;23.23;69.72;98895.94;4990849;28;20376;-80
2023/07/28 08:30:24;;;;;;;6.32;5.20;;;;;;;23.25;70.27;98900.09;4991139;28;20046;-79
2023/07/28 08:32:51;;;;;;;6.90;5.45;;;;;;;23.30;70.49;98891.47;4991268;28;20430;-78
2023/07/28 08:35:18;;;;;;;5.88;4.72;;;;;;;23.36;69.91;98892.59;4973535;28;20116;-77
2023/07/28 08:37:44;;;;;;;5.43;4.80;;;;;;;23.43;70.15;98898.84;4991068;28;20046;-76
2023/07/28 08:40:12;;;;;;;5.80;4.95;;;;;;;23.50;69.55;98896.22;4990880;28;20486;-78
2023/07/28 08:42:40;;;;;;;7.28;5.32;;;;;;;23.56;69.43;98895.44;4990862;28;20398;-79
2023/07/28 08:45:08;;;;;;;6.95;4.90;;;;;;;23.61;68.99;98898.38;4990921;28;20054;-78
2023/07/28 08:47:36;;;;;;;6.35;4.80;;;;;;;23.68;69.55;98903.81;4990921;28;20138;-77
2023/07/28 08:50:04;;;;;;;6.28;4.75;;;;;;;23.74;69.06;98894.94;4972758;28;20053;-78
2023/07/28 08:52:30;;;;;;;4.43;4.03;;;;;;;23.80;69.25;98904.94;4990740;28;20049;-76
2023/07/28 08:54:57;;;;;;;5.40;4.90;;;;;;;23.86;68.12;98899.81;4990681;28;20479;-77
2023/07/28 08:57:24;;;;;;;5.10;4.60;;;;;;;23.89;68.52;98907.47;4990678;28;20039;-77
2023/07/28 08:59:50;;;;;;;5.30;4.80;;;;;;;23.93;68.17;98914.13;4990653;28;20038;-76
2023/07/28 09:02:18;;;;;;;5.70;4.28;;;;;;;23.97;68.72;98909.19;4990452;28;20054;-77
2023/07/28 09:04:47;;;;;;;4.45;4.05;;;;;;;24.02;68.51;98904.03;4990562;28;20038;-77
2023/07/28 09:07:14;;;;;;;4.13;3.72;;;;;;;24.08;68.29;98914.84;4990714;28;20053;-77
2023/07/28 09:09:42;;;;;;;4.35;3.92;;;;;;;24.12;67.92;98906.41;4990421;28;20065;-76
2023/07/28 09:12:09;;;;;;;4.72;3.90;;;;;;;24.17;68.35;98917.41;4990383;28;20050;-76
2023/07/28 09:14:36;;;;;;;4.65;4.20;;;;;;;24.23;68.55;98918.47;4990541;28;20513;-76
2023/07/28 09:17:11;;;;;;;4.65;3.85;;;;;;;24.26;67.54;98926.97;4990778;28;20050;-77
2023/07/28 09:19:55;;;;;;;4.30;3.90;;;;;;;24.28;66.68;98933.00;4973882;28;20042;-77
2023/07/28 09:22:22;;;;;;;4.00;3.60;;;;;;;24.35;67.12;98922.28;4990643;28;20068;-77
2023/07/28 09:24:50;;;;;;;4.15;3.75;;;;;;;24.34;66.52;98926.81;4975206;28;20126;-76
2023/07/28 09:27:25;;;;;;;4.38;3.88;;;;;;;24.31;66.40;98932.59;4993655;28;20043;-76
2023/07/28 09:29:54;;;;;;;5.57;3.72;;;;;;;24.36;67.19;98933.88;4994281;28;20050;-76
2023/07/28 09:32:32;;;;;;;4.80;3.47;;;;;;;24.36;67.32;98933.88;4994056;28;20038;-77
2023/07/28 09:35:09;;;;;;;5.53;3.92;;;;;;;24.40;66.75;98948.59;4976944;28;20051;-77
2023/07/28 09:37:39;;;;;;;4.22;3.63;;;;;;;24.45;66.64;98938.06;4994090;28;20046;-76
2023/07/28 09:40:11;;;;;;;4.68;4.13;;;;;;;24.43;66.15;98940.09;4994054;28;20051;-76
2023/07/28 09:42:39;;;;;;;3.60;3.30;;;;;;;24.43;66.42;98937.41;4994115;28;20049;-76
2023/07/28 09:45:08;;;;;;;4.25;3.38;;;;;;;24.43;66.55;98950.84;4993997;28;20042;-76
2023/07/28 09:47:56;;;;;;;4.03;3.35;;;;;;;24.42;65.93;98949.22;4980685;28;20137;-77
2023/07/28 09:50:26;;;;;;;4.57;4.07;;;;;;;24.39;65.92;98953.13;4994121;28;20050;-77
2023/07/28 09:52:57;;;;;;;4.32;3.88;;;;;;;24.37;65.80;98946.28;4993815;28;20046;-77
2023/07/28 09:55:24;;;;;;;5.35;3.70;;;;;;;24.34;66.55;98948.31;4993414;28;20046;-78
2023/07/28 09:57:53;;;;;;;4.00;3.65;;;;;;;24.33;66.81;98952.06;4993359;28;20067;-77
2023/07/28 10:00:22;;;;;;;4.25;3.88;;;;;;;24.35;66.80;98946.47;4976517;28;20046;-77
2023/07/28 10:02:50;;;;;;;4.50;4.03;;;;;;;24.41;66.51;98956.44;4993751;28;20038;-77
2023/07/28 10:05:17;;;;;;;4.90;4.40;;;;;;;24.45;66.32;98960.38;4993065;28;20494;-77
2023/07/28 10:07:44;;;;;;;5.93;4.63;;;;;;;24.47;66.69;98962.88;4992956;28;20038;-77
2023/07/28 10:10:14;;;;;;;5.85;4.68;;;;;;;24.50;66.91;98967.88;4993397;28;20457;-78
2023/07/28 10:12:50;;;;;;;5.88;5.10;;;;;;;24.49;66.39;98968.06;4993657;28;20051;-77
2023/07/28 10:15:19;;;;;;;6.85;5.88;;;;;;;24.53;66.19;98972.88;4993121;28;20048;-76
2023/07/28 10:17:57;;;;;;;7.43;6.55;;;;;;;24.51;65.94;98974.09;4981662;28;20475;-77
2023/07/28 10:20:27;;;;;;;7.97;7.10;;;;;;;24.46;65.49;98980.91;4993032;28;20050;-77
2023/07/28 10:23:04;;;;;;;8.93;7.85;;;;;;;24.39;65.44;98968.41;4993363;28;20054;-76
2023/07/28 10:25:36;;;;;;;7.85;6.40;;;;;;;24.38;66.20;98975.69;4993022;28;20046;-76
2023/07/28 10:28:04;;;;;;;8.82;7.07;;;;;;;24.40;66.47;98986.25;4992957;28;20078;-77
2023/07/28 10:30:52;;;;;;;8.90;7.45;;;;;;;24.38;66.19;98980.22;4993223;28;20042;-77
2023/07/28 10:33:33;;;;;;;7.57;6.70;;;;;;;24.44;66.37;98982.94;4992987;28;20118;-78
2023/07/28 10:36:22;;;;;;;7.60;6.63;;;;;;;24.50;65.77;98984.00;4992893;28;20483;-77
2023/07/28 10:39:13;;;;;;;7.38;6.57;;;;;;;24.52;66.07;98998.09;4992750;28;20053;-78
2023/07/28 10:42:06;;;;;;;10.00;7.53;;;;;;;24.50;65.69;98991.25;4992903;28;20050;-77
2023/07/28 10:44:33;;;;;;;8.93;7.43;;;;;;;24.52;65.66;98997.28;4992790;28;20057;-77
2023/07/28 10:47:00;;;;;;;9.63;8.20;;;;;;;24.45;65.10;98994.53;4992428;28;20042;-77
2023/07/28 10:49:28;;;;;;;13.35;8.77;;;;;;;24.36;64.92;98993.03;4992760;28;20054;-77
2023/07/28 10:51:55;;;;;;;9.88;8.88;;;;;;;24.24;64.66;98990.88;4992568;28;20045;-77
2023/07/28 10:54:22;;;;;;;10.18;8.85;;;;;;;24.13;65.18;98992.25;4992766;28;20050;-77
2023/07/28 10:56:49;;;;;;;12.27;9.13;;;;;;;24.07;66.66;98984.97;4992057;28;20047;-76
2023/07/28 10:59:16;;;;;;;10.70;9.50;;;;;;;24.04;67.18;98988.84;4992098;28;20042;-76
2023/07/28 11:01:43;;;;;;;12.20;9.73;;;;;;;24.06;67.51;98978.72;4992377;28;20105;-77
2023/07/28 11:04:20;;;;;;;10.73;9.63;;;;;;;24.07;66.93;98980.38;4992253;28;20434;-78
2023/07/28 11:06:48;;;;;;;11.32;9.82;;;;;;;24.16;66.68;98989.19;4992227;28;20132;-76
2023/07/28 11:09:22;;;;;;;9.68;8.70;;;;;;;24.17;66.89;98996.22;4992308;28;20089;-78
2023/07/28 11:11:50;;;;;;;10.45;9.02;;;;;;;24.21;66.81;98996.66;4992331;28;20137;-76
2023/07/28 11:14:17;;;;;;;12.50;9.88;;;;;;;24.22;66.53;98995.63;4974765;28;20053;-76
2023/07/28 11:16:47;;;;;;;11.40;8.80;;;;;;;24.22;66.24;99000.19;4974648;28;20068;-77
2023/07/28 11:19:14;;;;;;;12.95;10.18;;;;;;;24.18;65.91;98989.81;4992568;28;20057;-76
2023/07/28 11:21:42;;;;;;;11.77;9.65;;;;;;;24.12;65.33;98993.28;4992177;28;20490;-76
2023/07/28 11:24:10;;;;;;;12.32;10.05;;;;;;;24.05;65.48;98987.00;4992008;28;20459;-76
2023/07/28 11:26:39;;;;;;;13.23;10.77;;;;;;;23.97;65.71;98993.34;4991510;28;20042;-77
2023/07/28 11:29:06;;;;;;;15.25;11.35;;;;;;;23.90;65.74;98989.75;4992076;28;20085;-76
2023/07/28 11:31:33;;;;;;;14.80;11.45;;;;;;;23.82;66.51;98988.88;4974455;28;20113;-77
2023/07/28 11:34:00;;;;;;;13.52;11.20;;;;;;;23.79;66.51;98989.28;4992018;28;20729;-76
2023/07/28 11:36:28;;;;;;;13.63;11.05;;;;;;;23.75;66.66;98998.75;4974206;28;20061;-76
2023/07/28 11:38:58;;;;;;;16.13;11.60;;;;;;;23.73;67.12;99010.72;4991435;28;20417;-75
2023/07/28 11:41:26;;;;;;;12.73;10.70;;;;;;;23.74;67.51;99002.44;4974271;28;20080;-75